»·PEaware :: N36BM KSBA-KBUR

N36BM :: KSBA-KBUR

FLIGHT INFORMATION

Flight Status: Arrived
Operator: Privately registered:
United States
More flights under this callsign
Pilot: Mike B. (16754)
Aircraft: Unknown
(LEG2)
More flights by this aircraft type
Origin: KSBA Santa Barbara Mun
United States
Destination: KBUR Bob Hope-Burbank
United States
More flights between these airports :: More routes between these airports
Route: +VFR DCT
File this flight plan on PilotEdge
Remarks: CAT-8 Attempt - custom cloud
Altitude:
(Current/Filed)
7,500ft
Speed:
(Current/Filed)
190kts
Departed: 24-Jul-20 08:14 AM
Arrived: 24-Jul-20 08:45 AM
Distance/Time
Traveled:
75nm/0:30
Distance/Time
To Go:
Arrived

Flight Plot

Page will automatically refresh every two minutes.


Map Options




Map Legend


Flown Route
Filed Route
Departure Airport
Arrival Airport
Navaid (VOR, NDB)
Fix

Horizontal Profiles

Position Reports

Time Latitude Longitude Heading Altitude Ground
Speed
24-Jul-20 07:58 34.432570 -119.835082 71 12ft 0kts
24-Jul-20 07:59 34.432570 -119.835082 71 12ft 0kts
24-Jul-20 08:00 34.432570 -119.835082 71 12ft 0kts
24-Jul-20 08:01 34.432570 -119.835082 71 12ft 0kts
24-Jul-20 08:02 34.432570 -119.835082 71 12ft 0kts
24-Jul-20 08:03 34.432570 -119.835082 71 12ft 0kts
24-Jul-20 08:04 34.432275 -119.834818 212 12ft 5kts
24-Jul-20 08:05 34.431534 -119.836966 253 12ft 8kts
24-Jul-20 08:06 34.430573 -119.840092 246 12ft 11kts
24-Jul-20 08:07 34.429486 -119.842925 245 12ft 10kts
24-Jul-20 08:08 34.428486 -119.845418 236 12ft 3kts
24-Jul-20 08:09 34.426614 -119.846588 229 12ft 11kts
24-Jul-20 08:10 34.426404 -119.851403 265 12ft 11kts
24-Jul-20 08:11 34.426629 -119.853857 325 12ft 0kts
24-Jul-20 08:12 34.427006 -119.854234 342 12ft 11kts
24-Jul-20 08:13 34.428076 -119.830982 89 554ft 102kts
24-Jul-20 08:14 34.428436 -119.793575 105 1472ft 125kts
24-Jul-20 08:15 34.412886 -119.750788 113 1820ft 129kts
24-Jul-20 08:16 34.404746 -119.704409 97 3191ft 146kts
24-Jul-20 08:17 34.397707 -119.653479 99 4495ft 161kts
24-Jul-20 08:18 34.389705 -119.599491 99 5655ft 165kts
24-Jul-20 08:19 34.381512 -119.543990 99 6699ft 168kts
24-Jul-20 08:20 34.373140 -119.487775 99 7485ft 178kts
24-Jul-20 08:21 34.363595 -119.425406 100 7499ft 194kts
24-Jul-20 08:22 34.354020 -119.361003 98 7499ft 193kts
24-Jul-20 08:23 34.345233 -119.297779 99 7499ft 188kts
24-Jul-20 08:24 34.335895 -119.235659 100 7499ft 187kts
24-Jul-20 08:25 34.326407 -119.173677 99 7500ft 187kts
24-Jul-20 08:26 34.317126 -119.111485 99 7501ft 193kts
24-Jul-20 08:27 34.307010 -119.045334 100 7500ft 201kts
24-Jul-20 08:28 34.296984 -118.979907 99 7499ft 195kts
24-Jul-20 08:29 34.287285 -118.915679 99 7499ft 192kts
24-Jul-20 08:30 34.277866 -118.854249 99 7498ft 166kts
24-Jul-20 08:31 34.270373 -118.804375 99 6798ft 126kts
24-Jul-20 08:32 34.264645 -118.766543 98 5815ft 113kts
24-Jul-20 08:33 34.258946 -118.729673 99 4812ft 114kts
24-Jul-20 08:34 34.252721 -118.689595 99 4027ft 140kts
24-Jul-20 08:35 34.244782 -118.639473 99 3502ft 147kts
24-Jul-20 08:36 34.237830 -118.594804 98 3499ft 126kts
24-Jul-20 08:37 34.231204 -118.552428 99 3501ft 111kts
24-Jul-20 08:38 34.225992 -118.518971 98 3504ft 113kts
24-Jul-20 08:39 34.222038 -118.483478 74 3446ft 101kts
24-Jul-20 08:40 34.229179 -118.451153 92 2877ft 93kts
24-Jul-20 08:41 34.228030 -118.419017 88 2170ft 92kts
24-Jul-20 08:42 34.232093 -118.390527 84 1750ft 80kts
24-Jul-20 08:43 34.223838 -118.365474 141 1201ft 84kts
24-Jul-20 08:44 34.204253 -118.358203 168 779ft 39kts
24-Jul-20 08:45 34.202237 -118.358761 170 779ft 5kts
24-Jul-20 08:46 34.200907 -118.359414 187 779ft 5kts
24-Jul-20 08:47 34.200347 -118.359392 45 779ft 0kts
24-Jul-20 08:48 34.200347 -118.359392 45 779ft 0kts
24-Jul-20 08:49 34.200347 -118.359392 45 779ft 0kts
24-Jul-20 08:50 34.200347 -118.359392 45 779ft 0kts
24-Jul-20 08:51 34.200347 -118.359392 45 779ft 0kts
24-Jul-20 08:52 34.200347 -118.359392 45 779ft 0kts
24-Jul-20 08:53 34.200347 -118.359392 45 779ft 0kts
24-Jul-20 08:54 34.200347 -118.359392 45 779ft 0kts
24-Jul-20 08:55 34.200347 -118.359392 45 779ft 0kts
24-Jul-20 08:56 34.200347 -118.359392 45 779ft 0kts
24-Jul-20 08:57 34.200347 -118.359392 45 779ft 0kts
24-Jul-20 08:58 34.200347 -118.359392 45 779ft 0kts

Navigation Log

Ident Type
Flight plan parsing failed, navigation log unavailable